Avalon, Pennsylvania
Current Conditions -  °F | °C
As of 7:51 PM on Sunday 21 Dec 2014 (Local Time) from KPIT Reporting Station
Scattered Clouds Scattered Clouds  
Wind Chill: 22°   Ceiling: Unl
Heat Index: 28°   Visibility: 10mi
Dew Point: 22°   Wind: 6mph
Humidity: 78%   Direction: 80°E
Pressure: 30.22"   Gusts: NA
Location:  40.5069°N, 80.0715°W
Report Text: KPIT 220051Z 08005KT 10SM SCT220 M02/M06 A3022 RMK AO2 SLP255 T10221056
Loading
Personal Weather Stations






























Interactive Weather Map New forecast layout! Learn more

10-Day Weather Forecast

Advertisements
Track Severe Weather on mobile